Terminal Aerodrome Forecast
Issued by NWS

Home | Current Version | Previous Version | Text Only | Print | Product List | Glossary Off
Versions: 1 2 3 4 5 6 7 8 9 10 11 12 13

488
FTUS43 KOAX 180520
TAFCDR
TAF
KCDR 180520Z 1806/1906 34012KT P6SM -RASN BKN025 OVC050
     FM180800 30018G25KT P6SM SCT100
     FM190100 01010KT P6SM SCT250=

USA.gov is the U.S. government's official web portal to all federal, state and local government web resources and services.